sensor_id;sensor_type;location;lat;lon;timestamp;P1;durP1;ratioP1;P2;durP2;ratioP2
18659;SDS011;9459;50.254;19.014;2023-05-10T00:02:10;8.55;;;5.22;;
18659;SDS011;9459;50.254;19.014;2023-05-10T00:04:39;12.23;;;4.88;;
18659;SDS011;9459;50.254;19.014;2023-05-10T00:07:08;9.55;;;5.30;;
18659;SDS011;9459;50.254;19.014;2023-05-10T00:09:36;10.77;;;5.00;;
18659;SDS011;9459;50.254;19.014;2023-05-10T00:12:05;10.38;;;4.95;;
18659;SDS011;9459;50.254;19.014;2023-05-10T00:14:34;11.65;;;6.07;;
18659;SDS011;9459;50.254;19.014;2023-05-10T00:17:02;10.80;;;5.20;;
18659;SDS011;9459;50.254;19.014;2023-05-10T00:19:32;8.23;;;5.13;;
18659;SDS011;9459;50.254;19.014;2023-05-10T00:22:01;9.48;;;5.15;;
18659;SDS011;9459;50.254;19.014;2023-05-10T00:24:29;10.05;;;5.30;;
18659;SDS011;9459;50.254;19.014;2023-05-10T00:26:58;8.52;;;5.30;;
18659;SDS011;9459;50.254;19.014;2023-05-10T00:29:27;9.88;;;5.93;;
18659;SDS011;9459;50.254;19.014;2023-05-10T00:31:56;8.88;;;5.30;;
18659;SDS011;9459;50.254;19.014;2023-05-10T00:34:24;9.35;;;5.28;;
18659;SDS011;9459;50.254;19.014;2023-05-10T00:36:55;13.90;;;5.35;;
18659;SDS011;9459;50.254;19.014;2023-05-10T00:39:24;10.60;;;5.18;;
18659;SDS011;9459;50.254;19.014;2023-05-10T00:41:53;8.25;;;5.57;;
18659;SDS011;9459;50.254;19.014;2023-05-10T00:44:22;9.73;;;5.85;;
18659;SDS011;9459;50.254;19.014;2023-05-10T00:46:51;11.57;;;5.55;;
18659;SDS011;9459;50.254;19.014;2023-05-10T00:49:19;10.77;;;5.20;;
18659;SDS011;9459;50.254;19.014;2023-05-10T00:51:48;10.73;;;5.68;;
18659;SDS011;9459;50.254;19.014;2023-05-10T00:54:18;8.43;;;4.95;;
18659;SDS011;9459;50.254;19.014;2023-05-10T00:56:47;7.88;;;5.55;;
18659;SDS011;9459;50.254;19.014;2023-05-10T00:59:16;8.35;;;5.32;;
18659;SDS011;9459;50.254;19.014;2023-05-10T01:01:45;7.90;;;5.05;;
18659;SDS011;9459;50.254;19.014;2023-05-10T01:04:14;8.50;;;5.18;;
18659;SDS011;9459;50.254;19.014;2023-05-10T01:06:43;9.90;;;5.22;;
18659;SDS011;9459;50.254;19.014;2023-05-10T01:09:12;7.85;;;4.78;;
18659;SDS011;9459;50.254;19.014;2023-05-10T01:11:42;9.25;;;4.95;;
18659;SDS011;9459;50.254;19.014;2023-05-10T01:14:10;9.38;;;6.03;;
18659;SDS011;9459;50.254;19.014;2023-05-10T01:16:39;11.30;;;5.47;;
18659;SDS011;9459;50.254;19.014;2023-05-10T01:19:10;10.93;;;5.20;;
18659;SDS011;9459;50.254;19.014;2023-05-10T01:21:43;7.97;;;5.18;;
18659;SDS011;9459;50.254;19.014;2023-05-10T01:24:28;10.88;;;5.15;;
18659;SDS011;9459;50.254;19.014;2023-05-10T01:27:13;11.32;;;6.18;;
18659;SDS011;9459;50.254;19.014;2023-05-10T01:30:01;8.07;;;5.38;;
18659;SDS011;9459;50.254;19.014;2023-05-10T01:32:44;9.38;;;5.65;;
18659;SDS011;9459;50.254;19.014;2023-05-10T01:35:19;9.50;;;5.75;;
18659;SDS011;9459;50.254;19.014;2023-05-10T01:37:56;10.95;;;5.53;;
18659;SDS011;9459;50.254;19.014;2023-05-10T01:40:30;10.65;;;5.40;;
18659;SDS011;9459;50.254;19.014;2023-05-10T01:43:02;9.75;;;5.30;;
18659;SDS011;9459;50.254;19.014;2023-05-10T01:45:33;10.75;;;5.20;;
18659;SDS011;9459;50.254;19.014;2023-05-10T01:48:08;11.45;;;6.45;;
18659;SDS011;9459;50.254;19.014;2023-05-10T01:50:38;8.43;;;5.30;;
18659;SDS011;9459;50.254;19.014;2023-05-10T01:53:10;8.57;;;5.10;;
18659;SDS011;9459;50.254;19.014;2023-05-10T01:55:41;8.43;;;5.13;;
18659;SDS011;9459;50.254;19.014;2023-05-10T01:58:13;8.07;;;5.20;;
18659;SDS011;9459;50.254;19.014;2023-05-10T02:00:43;7.97;;;5.40;;
18659;SDS011;9459;50.254;19.014;2023-05-10T02:03:14;9.88;;;5.05;;
18659;SDS011;9459;50.254;19.014;2023-05-10T02:05:44;7.32;;;5.30;;
18659;SDS011;9459;50.254;19.014;2023-05-10T02:08:14;9.38;;;5.15;;
18659;SDS011;9459;50.254;19.014;2023-05-10T02:10:45;13.02;;;6.60;;
18659;SDS011;9459;50.254;19.014;2023-05-10T02:13:14;13.38;;;6.25;;
18659;SDS011;9459;50.254;19.014;2023-05-10T02:15:43;10.48;;;5.82;;
18659;SDS011;9459;50.254;19.014;2023-05-10T02:18:16;12.30;;;6.70;;
18659;SDS011;9459;50.254;19.014;2023-05-10T02:20:45;11.90;;;7.15;;
18659;SDS011;9459;50.254;19.014;2023-05-10T02:23:14;14.70;;;7.68;;
18659;SDS011;9459;50.254;19.014;2023-05-10T02:25:45;13.75;;;8.23;;
18659;SDS011;9459;50.254;19.014;2023-05-10T02:28:14;15.20;;;10.07;;
18659;SDS011;9459;50.254;19.014;2023-05-10T02:30:44;19.50;;;9.85;;
18659;SDS011;9459;50.254;19.014;2023-05-10T02:33:12;21.55;;;10.10;;
18659;SDS011;9459;50.254;19.014;2023-05-10T02:35:43;15.43;;;8.52;;
18659;SDS011;9459;50.254;19.014;2023-05-10T02:38:12;16.73;;;8.40;;
18659;SDS011;9459;50.254;19.014;2023-05-10T02:40:42;12.50;;;7.80;;
18659;SDS011;9459;50.254;19.014;2023-05-10T02:43:12;16.48;;;7.85;;
18659;SDS011;9459;50.254;19.014;2023-05-10T02:45:42;13.38;;;8.43;;
18659;SDS011;9459;50.254;19.014;2023-05-10T02:48:11;13.23;;;7.65;;
18659;SDS011;9459;50.254;19.014;2023-05-10T02:50:40;9.95;;;6.82;;
18659;SDS011;9459;50.254;19.014;2023-05-10T02:53:15;12.65;;;6.65;;
18659;SDS011;9459;50.254;19.014;2023-05-10T02:55:45;10.30;;;7.43;;
18659;SDS011;9459;50.254;19.014;2023-05-10T02:58:17;9.70;;;6.13;;
18659;SDS011;9459;50.254;19.014;2023-05-10T03:00:46;10.05;;;6.53;;
18659;SDS011;9459;50.254;19.014;2023-05-10T03:03:14;10.70;;;5.80;;
18659;SDS011;9459;50.254;19.014;2023-05-10T03:05:44;9.70;;;6.50;;
18659;SDS011;9459;50.254;19.014;2023-05-10T03:08:13;10.20;;;5.40;;
18659;SDS011;9459;50.254;19.014;2023-05-10T03:10:45;9.30;;;5.95;;
18659;SDS011;9459;50.254;19.014;2023-05-10T03:13:21;9.43;;;5.63;;
18659;SDS011;9459;50.254;19.014;2023-05-10T03:15:57;10.57;;;6.03;;
18659;SDS011;9459;50.254;19.014;2023-05-10T03:18:29;12.32;;;5.72;;
18659;SDS011;9459;50.254;19.014;2023-05-10T03:21:03;9.73;;;5.72;;
18659;SDS011;9459;50.254;19.014;2023-05-10T03:23:34;8.82;;;6.80;;
18659;SDS011;9459;50.254;19.014;2023-05-10T03:26:03;11.07;;;5.60;;
18659;SDS011;9459;50.254;19.014;2023-05-10T03:28:33;11.63;;;5.57;;
18659;SDS011;9459;50.254;19.014;2023-05-10T03:31:03;9.73;;;5.63;;
18659;SDS011;9459;50.254;19.014;2023-05-10T03:33:45;10.25;;;5.40;;
18659;SDS011;9459;50.254;19.014;2023-05-10T03:36:15;7.93;;;5.35;;
18659;SDS011;9459;50.254;19.014;2023-05-10T03:38:44;9.50;;;5.68;;
18659;SDS011;9459;50.254;19.014;2023-05-10T03:41:12;10.57;;;6.00;;
18659;SDS011;9459;50.254;19.014;2023-05-10T03:43:41;8.43;;;5.78;;
18659;SDS011;9459;50.254;19.014;2023-05-10T03:46:09;9.45;;;5.40;;
18659;SDS011;9459;50.254;19.014;2023-05-10T03:48:38;14.73;;;6.10;;
18659;SDS011;9459;50.254;19.014;2023-05-10T03:51:06;8.88;;;5.45;;
18659;SDS011;9459;50.254;19.014;2023-05-10T03:53:38;11.85;;;6.15;;
18659;SDS011;9459;50.254;19.014;2023-05-10T03:56:06;9.43;;;5.90;;
18659;SDS011;9459;50.254;19.014;2023-05-10T03:58:35;9.02;;;5.82;;
18659;SDS011;9459;50.254;19.014;2023-05-10T04:01:03;10.23;;;5.85;;
18659;SDS011;9459;50.254;19.014;2023-05-10T04:03:32;11.82;;;6.80;;
18659;SDS011;9459;50.254;19.014;2023-05-10T04:06:02;11.40;;;6.60;;
18659;SDS011;9459;50.254;19.014;2023-05-10T04:08:32;9.50;;;5.65;;
18659;SDS011;9459;50.254;19.014;2023-05-10T04:11:08;12.32;;;6.32;;
18659;SDS011;9459;50.254;19.014;2023-05-10T04:13:39;12.13;;;7.10;;
18659;SDS011;9459;50.254;19.014;2023-05-10T04:16:08;12.00;;;6.78;;
18659;SDS011;9459;50.254;19.014;2023-05-10T04:18:37;11.63;;;6.40;;
18659;SDS011;9459;50.254;19.014;2023-05-10T04:21:10;10.25;;;5.88;;
18659;SDS011;9459;50.254;19.014;2023-05-10T04:23:40;9.55;;;6.45;;
18659;SDS011;9459;50.254;19.014;2023-05-10T04:26:09;10.35;;;6.13;;
18659;SDS011;9459;50.254;19.014;2023-05-10T04:28:39;9.35;;;5.32;;
18659;SDS011;9459;50.254;19.014;2023-05-10T04:31:08;9.35;;;5.97;;
18659;SDS011;9459;50.254;19.014;2023-05-10T04:33:38;12.40;;;5.45;;
18659;SDS011;9459;50.254;19.014;2023-05-10T04:36:06;11.73;;;7.05;;
18659;SDS011;9459;50.254;19.014;2023-05-10T04:38:36;8.75;;;5.75;;
18659;SDS011;9459;50.254;19.014;2023-05-10T04:41:04;13.30;;;6.00;;
18659;SDS011;9459;50.254;19.014;2023-05-10T04:43:35;9.27;;;6.05;;
18659;SDS011;9459;50.254;19.014;2023-05-10T04:46:04;12.07;;;5.85;;
18659;SDS011;9459;50.254;19.014;2023-05-10T04:48:34;15.23;;;6.15;;
18659;SDS011;9459;50.254;19.014;2023-05-10T04:51:02;9.35;;;5.25;;
18659;SDS011;9459;50.254;19.014;2023-05-10T04:53:33;10.20;;;5.47;;
18659;SDS011;9459;50.254;19.014;2023-05-10T04:56:01;9.00;;;5.28;;
18659;SDS011;9459;50.254;19.014;2023-05-10T04:58:31;11.80;;;6.20;;
18659;SDS011;9459;50.254;19.014;2023-05-10T05:01:05;11.95;;;5.88;;
18659;SDS011;9459;50.254;19.014;2023-05-10T05:03:35;8.85;;;5.32;;
18659;SDS011;9459;50.254;19.014;2023-05-10T05:06:03;8.63;;;5.20;;
18659;SDS011;9459;50.254;19.014;2023-05-10T05:08:32;8.50;;;5.70;;
18659;SDS011;9459;50.254;19.014;2023-05-10T05:11:01;12.52;;;5.25;;
18659;SDS011;9459;50.254;19.014;2023-05-10T05:13:30;9.55;;;5.38;;
18659;SDS011;9459;50.254;19.014;2023-05-10T05:15:59;8.98;;;5.07;;
18659;SDS011;9459;50.254;19.014;2023-05-10T05:18:30;7.38;;;4.72;;
18659;SDS011;9459;50.254;19.014;2023-05-10T05:20:59;7.18;;;4.72;;
18659;SDS011;9459;50.254;19.014;2023-05-10T05:23:27;9.02;;;5.22;;
18659;SDS011;9459;50.254;19.014;2023-05-10T05:25:56;9.82;;;4.85;;
18659;SDS011;9459;50.254;19.014;2023-05-10T05:28:25;8.98;;;4.88;;
18659;SDS011;9459;50.254;19.014;2023-05-10T05:30:55;9.65;;;4.95;;
18659;SDS011;9459;50.254;19.014;2023-05-10T05:33:23;7.78;;;4.78;;
18659;SDS011;9459;50.254;19.014;2023-05-10T05:35:53;9.20;;;4.75;;
18659;SDS011;9459;50.254;19.014;2023-05-10T05:38:22;6.72;;;4.50;;
18659;SDS011;9459;50.254;19.014;2023-05-10T05:40:51;7.70;;;4.80;;
18659;SDS011;9459;50.254;19.014;2023-05-10T05:43:22;6.22;;;3.70;;
18659;SDS011;9459;50.254;19.014;2023-05-10T05:45:51;8.95;;;4.88;;
18659;SDS011;9459;50.254;19.014;2023-05-10T05:48:21;8.98;;;3.92;;
18659;SDS011;9459;50.254;19.014;2023-05-10T05:50:49;8.80;;;4.45;;
18659;SDS011;9459;50.254;19.014;2023-05-10T05:53:19;10.95;;;4.65;;
18659;SDS011;9459;50.254;19.014;2023-05-10T05:55:51;7.00;;;4.10;;
18659;SDS011;9459;50.254;19.014;2023-05-10T05:58:20;7.55;;;3.83;;
18659;SDS011;9459;50.254;19.014;2023-05-10T06:00:49;7.18;;;4.20;;
18659;SDS011;9459;50.254;19.014;2023-05-10T06:03:18;7.00;;;3.97;;
18659;SDS011;9459;50.254;19.014;2023-05-10T06:05:52;10.05;;;4.03;;
18659;SDS011;9459;50.254;19.014;2023-05-10T06:08:22;9.82;;;4.22;;
18659;SDS011;9459;50.254;19.014;2023-05-10T06:10:51;7.73;;;3.97;;
18659;SDS011;9459;50.254;19.014;2023-05-10T06:13:19;8.88;;;4.43;;
18659;SDS011;9459;50.254;19.014;2023-05-10T06:15:48;5.38;;;3.70;;
18659;SDS011;9459;50.254;19.014;2023-05-10T06:18:16;6.30;;;3.85;;
18659;SDS011;9459;50.254;19.014;2023-05-10T06:20:45;8.02;;;3.75;;
18659;SDS011;9459;50.254;19.014;2023-05-10T06:23:14;8.10;;;3.83;;
18659;SDS011;9459;50.254;19.014;2023-05-10T06:25:44;7.30;;;3.58;;
18659;SDS011;9459;50.254;19.014;2023-05-10T06:28:12;7.47;;;3.38;;
18659;SDS011;9459;50.254;19.014;2023-05-10T06:30:41;6.95;;;3.10;;
18659;SDS011;9459;50.254;19.014;2023-05-10T06:33:10;7.22;;;3.53;;
18659;SDS011;9459;50.254;19.014;2023-05-10T06:35:38;7.70;;;3.17;;
18659;SDS011;9459;50.254;19.014;2023-05-10T06:38:07;4.90;;;3.00;;
18659;SDS011;9459;50.254;19.014;2023-05-10T06:40:36;6.88;;;2.78;;
18659;SDS011;9459;50.254;19.014;2023-05-10T06:43:06;7.05;;;2.85;;
18659;SDS011;9459;50.254;19.014;2023-05-10T06:45:34;3.78;;;2.60;;
18659;SDS011;9459;50.254;19.014;2023-05-10T06:48:03;5.63;;;2.40;;
18659;SDS011;9459;50.254;19.014;2023-05-10T06:50:32;5.03;;;2.60;;
18659;SDS011;9459;50.254;19.014;2023-05-10T06:53:01;4.40;;;2.60;;
18659;SDS011;9459;50.254;19.014;2023-05-10T06:55:29;6.07;;;2.50;;
18659;SDS011;9459;50.254;19.014;2023-05-10T06:57:58;6.88;;;2.88;;
18659;SDS011;9459;50.254;19.014;2023-05-10T07:00:28;3.72;;;2.47;;
18659;SDS011;9459;50.254;19.014;2023-05-10T07:02:56;4.55;;;2.67;;
18659;SDS011;9459;50.254;19.014;2023-05-10T07:05:25;5.50;;;2.40;;
18659;SDS011;9459;50.254;19.014;2023-05-10T07:07:55;6.32;;;2.58;;
18659;SDS011;9459;50.254;19.014;2023-05-10T07:10:24;4.07;;;2.70;;
18659;SDS011;9459;50.254;19.014;2023-05-10T07:12:53;3.63;;;2.30;;
18659;SDS011;9459;50.254;19.014;2023-05-10T07:15:21;5.30;;;2.38;;
18659;SDS011;9459;50.254;19.014;2023-05-10T07:17:52;4.75;;;2.17;;
18659;SDS011;9459;50.254;19.014;2023-05-10T07:20:20;2.53;;;2.30;;
18659;SDS011;9459;50.254;19.014;2023-05-10T07:22:49;5.03;;;2.45;;
18659;SDS011;9459;50.254;19.014;2023-05-10T07:25:18;4.72;;;2.20;;
18659;SDS011;9459;50.254;19.014;2023-05-10T07:27:46;4.90;;;2.33;;
18659;SDS011;9459;50.254;19.014;2023-05-10T07:30:18;5.35;;;2.40;;
18659;SDS011;9459;50.254;19.014;2023-05-10T07:32:46;6.03;;;2.50;;
18659;SDS011;9459;50.254;19.014;2023-05-10T07:35:17;5.28;;;2.40;;
18659;SDS011;9459;50.254;19.014;2023-05-10T07:37:45;8.13;;;2.92;;
18659;SDS011;9459;50.254;19.014;2023-05-10T07:40:14;5.50;;;2.38;;
18659;SDS011;9459;50.254;19.014;2023-05-10T07:42:42;4.53;;;2.00;;
18659;SDS011;9459;50.254;19.014;2023-05-10T07:45:11;6.50;;;2.00;;
18659;SDS011;9459;50.254;19.014;2023-05-10T07:47:40;5.30;;;2.00;;
18659;SDS011;9459;50.254;19.014;2023-05-10T07:50:09;5.47;;;2.20;;
18659;SDS011;9459;50.254;19.014;2023-05-10T07:52:40;2.65;;;1.45;;
18659;SDS011;9459;50.254;19.014;2023-05-10T07:55:10;3.10;;;2.10;;
18659;SDS011;9459;50.254;19.014;2023-05-10T07:57:40;4.27;;;1.90;;
18659;SDS011;9459;50.254;19.014;2023-05-10T08:00:09;3.13;;;1.65;;
18659;SDS011;9459;50.254;19.014;2023-05-10T08:02:40;5.90;;;1.95;;
18659;SDS011;9459;50.254;19.014;2023-05-10T08:05:09;4.30;;;1.83;;
18659;SDS011;9459;50.254;19.014;2023-05-10T08:07:38;3.08;;;1.55;;
18659;SDS011;9459;50.254;19.014;2023-05-10T08:10:09;4.65;;;1.88;;
18659;SDS011;9459;50.254;19.014;2023-05-10T08:12:39;2.75;;;1.55;;
18659;SDS011;9459;50.254;19.014;2023-05-10T08:15:08;4.20;;;1.65;;
18659;SDS011;9459;50.254;19.014;2023-05-10T08:17:37;2.70;;;1.58;;
18659;SDS011;9459;50.254;19.014;2023-05-10T08:20:06;2.22;;;1.50;;
18659;SDS011;9459;50.254;19.014;2023-05-10T08:22:35;2.60;;;1.55;;
18659;SDS011;9459;50.254;19.014;2023-05-10T08:25:04;4.75;;;2.00;;
18659;SDS011;9459;50.254;19.014;2023-05-10T08:27:35;4.15;;;1.70;;
18659;SDS011;9459;50.254;19.014;2023-05-10T08:30:05;2.47;;;1.65;;
18659;SDS011;9459;50.254;19.014;2023-05-10T08:32:34;2.05;;;1.60;;
18659;SDS011;9459;50.254;19.014;2023-05-10T08:35:05;4.20;;;1.50;;
18659;SDS011;9459;50.254;19.014;2023-05-10T08:37:33;2.35;;;1.60;;
18659;SDS011;9459;50.254;19.014;2023-05-10T08:40:03;2.88;;;1.40;;
18659;SDS011;9459;50.254;19.014;2023-05-10T08:42:32;4.25;;;1.42;;
18659;SDS011;9459;50.254;19.014;2023-05-10T08:45:05;1.70;;;1.50;;
18659;SDS011;9459;50.254;19.014;2023-05-10T08:47:36;2.78;;;1.40;;
18659;SDS011;9459;50.254;19.014;2023-05-10T08:50:06;2.90;;;1.58;;
18659;SDS011;9459;50.254;19.014;2023-05-10T08:52:35;2.03;;;1.50;;
18659;SDS011;9459;50.254;19.014;2023-05-10T08:55:07;4.68;;;1.50;;
18659;SDS011;9459;50.254;19.014;2023-05-10T08:57:36;3.85;;;1.50;;
18659;SDS011;9459;50.254;19.014;2023-05-10T09:00:06;1.93;;;1.30;;
18659;SDS011;9459;50.254;19.014;2023-05-10T09:02:36;2.47;;;1.48;;
18659;SDS011;9459;50.254;19.014;2023-05-10T09:05:07;2.53;;;1.55;;
18659;SDS011;9459;50.254;19.014;2023-05-10T09:07:36;2.75;;;1.65;;
18659;SDS011;9459;50.254;19.014;2023-05-10T09:10:06;5.03;;;1.60;;
18659;SDS011;9459;50.254;19.014;2023-05-10T09:12:36;4.72;;;2.00;;
18659;SDS011;9459;50.254;19.014;2023-05-10T09:15:05;3.53;;;1.67;;
18659;SDS011;9459;50.254;19.014;2023-05-10T09:17:35;3.38;;;1.58;;
18659;SDS011;9459;50.254;19.014;2023-05-10T09:20:04;2.50;;;1.80;;
18659;SDS011;9459;50.254;19.014;2023-05-10T09:22:34;1.45;;;1.35;;
18659;SDS011;9459;50.254;19.014;2023-05-10T09:25:03;1.65;;;1.10;;
18659;SDS011;9459;50.254;19.014;2023-05-10T09:27:33;1.83;;;1.45;;
18659;SDS011;9459;50.254;19.014;2023-05-10T09:30:04;1.50;;;1.40;;
18659;SDS011;9459;50.254;19.014;2023-05-10T09:32:36;4.30;;;1.30;;
18659;SDS011;9459;50.254;19.014;2023-05-10T09:35:09;1.88;;;1.23;;
18659;SDS011;9459;50.254;19.014;2023-05-10T09:37:39;2.70;;;1.20;;
18659;SDS011;9459;50.254;19.014;2023-05-10T09:40:11;3.45;;;1.75;;
18659;SDS011;9459;50.254;19.014;2023-05-10T09:42:41;2.55;;;1.60;;
18659;SDS011;9459;50.254;19.014;2023-05-10T09:45:12;2.20;;;1.33;;
18659;SDS011;9459;50.254;19.014;2023-05-10T09:47:41;3.33;;;1.35;;
18659;SDS011;9459;50.254;19.014;2023-05-10T09:50:09;2.28;;;1.45;;
18659;SDS011;9459;50.254;19.014;2023-05-10T09:52:49;3.97;;;1.58;;
18659;SDS011;9459;50.254;19.014;2023-05-10T09:55:19;6.20;;;2.22;;
18659;SDS011;9459;50.254;19.014;2023-05-10T09:57:48;2.90;;;1.80;;
18659;SDS011;9459;50.254;19.014;2023-05-10T10:00:19;3.53;;;1.85;;
18659;SDS011;9459;50.254;19.014;2023-05-10T10:02:48;3.97;;;2.08;;
18659;SDS011;9459;50.254;19.014;2023-05-10T10:05:27;4.43;;;2.10;;
18659;SDS011;9459;50.254;19.014;2023-05-10T10:07:56;3.55;;;1.70;;
18659;SDS011;9459;50.254;19.014;2023-05-10T10:10:26;3.78;;;1.80;;
18659;SDS011;9459;50.254;19.014;2023-05-10T10:12:55;2.83;;;1.60;;
18659;SDS011;9459;50.254;19.014;2023-05-10T10:15:25;1.90;;;1.50;;
18659;SDS011;9459;50.254;19.014;2023-05-10T10:17:54;4.07;;;1.70;;
18659;SDS011;9459;50.254;19.014;2023-05-10T10:20:23;2.65;;;1.95;;
18659;SDS011;9459;50.254;19.014;2023-05-10T10:22:52;2.55;;;1.50;;
18659;SDS011;9459;50.254;19.014;2023-05-10T10:25:21;2.42;;;1.80;;
18659;SDS011;9459;50.254;19.014;2023-05-10T10:27:55;2.17;;;1.40;;
18659;SDS011;9459;50.254;19.014;2023-05-10T10:30:31;1.92;;;1.30;;
18659;SDS011;9459;50.254;19.014;2023-05-10T10:33:10;2.30;;;1.60;;
18659;SDS011;9459;50.254;19.014;2023-05-10T10:35:55;2.88;;;1.67;;
18659;SDS011;9459;50.254;19.014;2023-05-10T10:38:34;2.33;;;1.77;;
18659;SDS011;9459;50.254;19.014;2023-05-10T10:41:09;2.42;;;1.40;;
18659;SDS011;9459;50.254;19.014;2023-05-10T10:43:38;3.50;;;1.50;;
18659;SDS011;9459;50.254;19.014;2023-05-10T10:46:12;4.63;;;1.73;;
18659;SDS011;9459;50.254;19.014;2023-05-10T10:48:41;2.17;;;1.40;;
18659;SDS011;9459;50.254;19.014;2023-05-10T10:51:16;3.70;;;2.63;;
18659;SDS011;9459;50.254;19.014;2023-05-10T10:53:44;2.83;;;1.70;;
18659;SDS011;9459;50.254;19.014;2023-05-10T10:56:17;3.13;;;1.73;;
18659;SDS011;9459;50.254;19.014;2023-05-10T10:58:51;2.50;;;1.50;;
18659;SDS011;9459;50.254;19.014;2023-05-10T11:01:22;1.43;;;1.33;;
18659;SDS011;9459;50.254;19.014;2023-05-10T11:06:48;4.40;;;1.92;;
18659;SDS011;9459;50.254;19.014;2023-05-10T11:09:16;4.65;;;1.48;;
18659;SDS011;9459;50.254;19.014;2023-05-10T11:11:49;2.00;;;1.40;;
18659;SDS011;9459;50.254;19.014;2023-05-10T11:14:22;2.05;;;1.60;;
18659;SDS011;9459;50.254;19.014;2023-05-10T11:16:52;3.58;;;2.00;;
18659;SDS011;9459;50.254;19.014;2023-05-10T11:19:20;1.92;;;1.65;;
18659;SDS011;9459;50.254;19.014;2023-05-10T11:21:49;2.78;;;1.67;;
18659;SDS011;9459;50.254;19.014;2023-05-10T11:24:21;5.55;;;1.80;;
18659;SDS011;9459;50.254;19.014;2023-05-10T11:26:51;2.70;;;1.75;;
18659;SDS011;9459;50.254;19.014;2023-05-10T11:29:19;6.55;;;2.45;;
18659;SDS011;9459;50.254;19.014;2023-05-10T11:31:48;3.42;;;1.92;;
18659;SDS011;9459;50.254;19.014;2023-05-10T11:34:25;2.80;;;1.92;;
18659;SDS011;9459;50.254;19.014;2023-05-10T11:36:54;2.72;;;1.50;;
18659;SDS011;9459;50.254;19.014;2023-05-10T11:39:25;4.03;;;1.50;;
18659;SDS011;9459;50.254;19.014;2023-05-10T11:41:54;2.67;;;1.70;;
18659;SDS011;9459;50.254;19.014;2023-05-10T11:44:23;2.15;;;1.67;;
18659;SDS011;9459;50.254;19.014;2023-05-10T11:46:53;2.85;;;1.70;;
18659;SDS011;9459;50.254;19.014;2023-05-10T11:49:21;6.32;;;2.38;;
18659;SDS011;9459;50.254;19.014;2023-05-10T11:51:53;3.63;;;1.70;;
18659;SDS011;9459;50.254;19.014;2023-05-10T11:54:32;3.90;;;1.80;;
18659;SDS011;9459;50.254;19.014;2023-05-10T11:57:01;6.95;;;1.80;;
18659;SDS011;9459;50.254;19.014;2023-05-10T11:59:30;4.60;;;1.85;;
18659;SDS011;9459;50.254;19.014;2023-05-10T12:01:59;2.30;;;1.50;;
18659;SDS011;9459;50.254;19.014;2023-05-10T12:04:28;2.67;;;1.73;;
18659;SDS011;9459;50.254;19.014;2023-05-10T12:06:59;2.55;;;1.80;;
18659;SDS011;9459;50.254;19.014;2023-05-10T12:09:28;1.77;;;1.48;;
18659;SDS011;9459;50.254;19.014;2023-05-10T12:12:09;3.10;;;1.48;;
18659;SDS011;9459;50.254;19.014;2023-05-10T12:14:38;3.05;;;1.73;;
18659;SDS011;9459;50.254;19.014;2023-05-10T12:17:11;3.40;;;1.77;;
18659;SDS011;9459;50.254;19.014;2023-05-10T12:19:39;3.53;;;2.20;;
18659;SDS011;9459;50.254;19.014;2023-05-10T12:24:40;3.22;;;2.00;;
18659;SDS011;9459;50.254;19.014;2023-05-10T12:27:10;2.53;;;1.85;;
18659;SDS011;9459;50.254;19.014;2023-05-10T12:29:41;5.97;;;1.60;;
18659;SDS011;9459;50.254;19.014;2023-05-10T12:32:11;3.17;;;1.85;;
18659;SDS011;9459;50.254;19.014;2023-05-10T12:34:40;5.50;;;1.75;;
18659;SDS011;9459;50.254;19.014;2023-05-10T12:37:08;3.00;;;1.55;;
18659;SDS011;9459;50.254;19.014;2023-05-10T12:39:39;3.13;;;1.50;;
18659;SDS011;9459;50.254;19.014;2023-05-10T12:42:08;3.78;;;1.95;;
18659;SDS011;9459;50.254;19.014;2023-05-10T12:44:37;3.13;;;1.70;;
18659;SDS011;9459;50.254;19.014;2023-05-10T12:47:07;2.15;;;1.60;;
18659;SDS011;9459;50.254;19.014;2023-05-10T12:49:35;3.63;;;1.60;;
18659;SDS011;9459;50.254;19.014;2023-05-10T12:52:04;5.50;;;1.73;;
18659;SDS011;9459;50.254;19.014;2023-05-10T12:54:32;6.43;;;1.90;;
18659;SDS011;9459;50.254;19.014;2023-05-10T12:57:02;3.80;;;1.83;;
18659;SDS011;9459;50.254;19.014;2023-05-10T12:59:31;7.43;;;1.90;;
18659;SDS011;9459;50.254;19.014;2023-05-10T13:02:02;2.65;;;1.55;;
18659;SDS011;9459;50.254;19.014;2023-05-10T13:04:31;3.30;;;1.58;;
18659;SDS011;9459;50.254;19.014;2023-05-10T13:07:00;3.55;;;1.95;;
18659;SDS011;9459;50.254;19.014;2023-05-10T13:09:29;3.15;;;1.60;;
18659;SDS011;9459;50.254;19.014;2023-05-10T13:11:58;2.15;;;1.85;;
18659;SDS011;9459;50.254;19.014;2023-05-10T13:14:29;5.07;;;1.77;;
18659;SDS011;9459;50.254;19.014;2023-05-10T13:16:58;2.03;;;1.30;;
18659;SDS011;9459;50.254;19.014;2023-05-10T13:19:27;4.30;;;1.50;;
18659;SDS011;9459;50.254;19.014;2023-05-10T13:21:55;3.60;;;1.52;;
18659;SDS011;9459;50.254;19.014;2023-05-10T13:24:24;2.20;;;1.73;;
18659;SDS011;9459;50.254;19.014;2023-05-10T13:26:54;2.42;;;1.67;;
18659;SDS011;9459;50.254;19.014;2023-05-10T13:29:23;4.13;;;1.70;;
18659;SDS011;9459;50.254;19.014;2023-05-10T13:31:54;4.20;;;1.73;;
18659;SDS011;9459;50.254;19.014;2023-05-10T13:34:23;4.47;;;1.65;;
18659;SDS011;9459;50.254;19.014;2023-05-10T13:36:52;5.63;;;1.90;;
18659;SDS011;9459;50.254;19.014;2023-05-10T13:39:22;4.22;;;1.65;;
18659;SDS011;9459;50.254;19.014;2023-05-10T13:41:51;3.08;;;1.60;;
18659;SDS011;9459;50.254;19.014;2023-05-10T13:44:21;3.85;;;1.98;;
18659;SDS011;9459;50.254;19.014;2023-05-10T13:46:50;2.47;;;1.70;;
18659;SDS011;9459;50.254;19.014;2023-05-10T13:49:20;3.35;;;1.92;;
18659;SDS011;9459;50.254;19.014;2023-05-10T13:51:49;1.98;;;1.52;;
18659;SDS011;9459;50.254;19.014;2023-05-10T13:54:19;1.58;;;1.40;;
18659;SDS011;9459;50.254;19.014;2023-05-10T13:56:49;4.15;;;1.70;;
18659;SDS011;9459;50.254;19.014;2023-05-10T13:59:18;3.63;;;1.90;;
18659;SDS011;9459;50.254;19.014;2023-05-10T14:01:50;2.00;;;1.70;;
18659;SDS011;9459;50.254;19.014;2023-05-10T14:04:21;3.05;;;1.95;;
18659;SDS011;9459;50.254;19.014;2023-05-10T14:06:49;2.97;;;1.95;;
18659;SDS011;9459;50.254;19.014;2023-05-10T14:09:19;7.03;;;1.98;;
18659;SDS011;9459;50.254;19.014;2023-05-10T14:11:48;2.88;;;2.05;;
18659;SDS011;9459;50.254;19.014;2023-05-10T14:14:18;2.85;;;1.65;;
18659;SDS011;9459;50.254;19.014;2023-05-10T14:16:50;4.07;;;1.67;;
18659;SDS011;9459;50.254;19.014;2023-05-10T14:19:21;5.13;;;1.77;;
18659;SDS011;9459;50.254;19.014;2023-05-10T14:21:50;2.42;;;1.75;;
18659;SDS011;9459;50.254;19.014;2023-05-10T14:24:19;4.93;;;2.00;;
18659;SDS011;9459;50.254;19.014;2023-05-10T14:26:48;3.88;;;1.60;;
18659;SDS011;9459;50.254;19.014;2023-05-10T14:29:20;3.80;;;1.83;;
18659;SDS011;9459;50.254;19.014;2023-05-10T14:31:49;2.30;;;1.50;;
18659;SDS011;9459;50.254;19.014;2023-05-10T14:34:18;2.55;;;1.60;;
18659;SDS011;9459;50.254;19.014;2023-05-10T14:36:49;2.92;;;1.80;;
18659;SDS011;9459;50.254;19.014;2023-05-10T14:39:18;4.10;;;1.57;;
18659;SDS011;9459;50.254;19.014;2023-05-10T14:41:47;2.30;;;1.65;;
18659;SDS011;9459;50.254;19.014;2023-05-10T14:44:15;3.83;;;1.80;;
18659;SDS011;9459;50.254;19.014;2023-05-10T14:46:44;3.85;;;1.58;;
18659;SDS011;9459;50.254;19.014;2023-05-10T14:49:15;2.75;;;1.45;;
18659;SDS011;9459;50.254;19.014;2023-05-10T14:51:43;4.03;;;2.08;;
18659;SDS011;9459;50.254;19.014;2023-05-10T14:54:14;2.50;;;1.83;;
18659;SDS011;9459;50.254;19.014;2023-05-10T14:56:46;2.53;;;1.60;;
18659;SDS011;9459;50.254;19.014;2023-05-10T14:59:16;2.38;;;2.00;;
18659;SDS011;9459;50.254;19.014;2023-05-10T15:01:48;3.38;;;1.80;;
18659;SDS011;9459;50.254;19.014;2023-05-10T15:04:17;3.20;;;1.50;;
18659;SDS011;9459;50.254;19.014;2023-05-10T15:09:18;1.88;;;1.35;;
18659;SDS011;9459;50.254;19.014;2023-05-10T15:11:48;2.63;;;1.88;;